地図

経路データ

SID SEASON NUMBER BASIN SUBBASIN NAME ISO_TIME NATURE LAT LON WMO_WIND WMO_PRES WMO_AGENCY TRACK_TYPE DIST2LAND LANDFALL IFLAG USA_AGENCY USA_ATCF_ID USA_LAT USA_LON USA_RECORD USA_STATUS USA_WIND USA_PRES USA_SSHS USA_R34_NE USA_R34_SE USA_R34_SW USA_R34_NW USA_R50_NE USA_R50_SE USA_R50_SW USA_R50_NW USA_R64_NE USA_R64_SE USA_R64_SW USA_R64_NW USA_POCI USA_ROCI USA_RMW USA_EYE TOKYO_LAT TOKYO_LON TOKYO_GRADE TOKYO_WIND TOKYO_PRES TOKYO_R50_DIR TOKYO_R50_LONG TOKYO_R50_SHORT TOKYO_R30_DIR TOKYO_R30_LONG TOKYO_R30_SHORT TOKYO_LAND CMA_LAT CMA_LON CMA_CAT CMA_WIND CMA_PRES HKO_LAT HKO_LON HKO_CAT HKO_WIND HKO_PRES NEWDELHI_LAT NEWDELHI_LON NEWDELHI_GRADE NEWDELHI_WIND NEWDELHI_PRES NEWDELHI_CI NEWDELHI_DP NEWDELHI_POCI REUNION_LAT REUNION_LON REUNION_TYPE REUNION_WIND REUNION_PRES REUNION_TNUM REUNION_CI REUNION_RMW REUNION_R34_NE REUNION_R34_SE REUNION_R34_SW REUNION_R34_NW REUNION_R50_NE REUNION_R50_SE REUNION_R50_SW REUNION_R50_NW REUNION_R64_NE REUNION_R64_SE REUNION_R64_SW REUNION_R64_NW BOM_LAT BOM_LON BOM_TYPE BOM_WIND BOM_PRES BOM_TNUM BOM_CI BOM_RMW BOM_R34_NE BOM_R34_SE BOM_R34_SW BOM_R34_NW BOM_R50_NE BOM_R50_SE BOM_R50_SW BOM_R50_NW BOM_R64_NE BOM_R64_SE BOM_R64_SW BOM_R64_NW BOM_ROCI BOM_POCI BOM_EYE BOM_POS_METHOD BOM_PRES_METHOD NADI_LAT NADI_LON NADI_CAT NADI_WIND NADI_PRES WELLINGTON_LAT WELLINGTON_LON WELLINGTON_WIND WELLINGTON_PRES DS824_LAT DS824_LON DS824_STAGE DS824_WIND DS824_PRES TD9636_LAT TD9636_LON TD9636_STAGE TD9636_WIND TD9636_PRES TD9635_LAT TD9635_LON TD9635_WIND TD9635_PRES TD9635_ROCI NEUMANN_LAT NEUMANN_LON NEUMANN_CLASS NEUMANN_WIND NEUMANN_PRES MLC_LAT MLC_LON MLC_CLASS MLC_WIND MLC_PRES USA_GUST BOM_GUST BOM_GUST_PER REUNION_GUST REUNION_GUST_PER USA_SEAHGT USA_SEARAD_NE USA_SEARAD_SE USA_SEARAD_SW USA_SEARAD_NW STORM_SPEED STORM_DIR
1966180N20278 1966 36 NA CS NOT_NAMED 1966-06-28 12:00:00 TS 19.7000 -82.5000 25 hurdat_atl main 192 159 O_____________ hurdat_atl AL121966 19.7000 -82.5000 TD 25 -1 6 5
1966180N20278 1966 36 NA CS NOT_NAMED 1966-06-28 15:00:00 TS 19.9925 -82.5000 main 159 126 P_____________ AL121966 19.9925 -82.5000 TD 25 -1 6 1
1966180N20278 1966 36 NA CS NOT_NAMED 1966-06-28 18:00:00 TS 20.3000 -82.5000 25 hurdat_atl main 126 94 O_____________ hurdat_atl AL121966 20.3000 -82.5000 TD 25 -1 6 2
1966180N20278 1966 36 NA CS NOT_NAMED 1966-06-28 21:00:00 TS 20.6350 -82.5000 main 94 54 P_____________ AL121966 20.6350 -82.5000 TD 27 -1 7 0
1966180N20278 1966 36 NA CS NOT_NAMED 1966-06-29 00:00:00 TS 21.0000 -82.5000 30 hurdat_atl main 54 22 O_____________ hurdat_atl AL121966 21.0000 -82.5000 TD 30 -1 8 1
1966180N20278 1966 36 NA CS NOT_NAMED 1966-06-29 03:00:00 TS 21.4000 -82.5000 main 22 0 P_____________ AL121966 21.4000 -82.5000 TD 32 -1 8 1
1966180N20278 1966 36 NA CS NOT_NAMED 1966-06-29 06:00:00 TS 21.8000 -82.5000 35 hurdat_atl main 15 15 O_____________ hurdat_atl AL121966 21.8000 -82.5000 TS 35 0 8 1
1966180N20278 1966 36 NA CS NOT_NAMED 1966-06-29 09:00:00 TS 22.1681 -82.5000 main 38 22 P_____________ AL121966 22.1681 -82.5000 TS 35 0 7 0
1966180N20278 1966 36 NA CS NOT_NAMED 1966-06-29 12:00:00 TS 22.5000 -82.5000 35 1008 hurdat_atl main 22 0 O_____________ hurdat_atl AL121966 22.5000 -82.5000 TS 35 1008 0 6 2
1966180N20278 1966 36 NA CS NOT_NAMED 1966-06-29 14:00:00 TS 22.7000 -82.5000 35 hurdat_atl main 0 0 I_____________ hurdat_atl AL121966 22.7000 -82.5000 L TS 35 1007 0 6 4
1966180N20278 1966 36 NA NA NOT_NAMED 1966-06-29 15:00:00 TS 22.8159 -82.5000 main 0 0 P_____________ AL121966 22.8159 -82.5000 TS 36 1007 0 8 2
1966180N20278 1966 36 NA NA NOT_NAMED 1966-06-29 18:00:00 TS 23.2000 -82.5000 40 1007 hurdat_atl main 11 11 O_____________ hurdat_atl AL121966 23.2000 -82.5000 TS 40 1007 0 7 2
1966180N20278 1966 36 NA NA NOT_NAMED 1966-06-29 21:00:00 TS 23.5546 -82.5000 main 55 55 P_____________ AL121966 23.5546 -82.5000 TS 40 1005 0 7 0
1966180N20278 1966 36 NA NA NOT_NAMED 1966-06-30 00:00:00 TS 23.9000 -82.5000 40 1004 hurdat_atl main 89 89 O_____________ hurdat_atl AL121966 23.9000 -82.5000 TS 40 1004 0 7 2
1966180N20278 1966 36 NA NA NOT_NAMED 1966-06-30 03:00:00 TS 24.2575 -82.5000 main 134 134 P_____________ AL121966 24.2575 -82.5000 TS 40 1004 0 7 0
1966180N20278 1966 36 NA GM NOT_NAMED 1966-06-30 06:00:00 TS 24.6000 -82.5000 40 1005 hurdat_atl main 147 135 O_____________ hurdat_atl AL121966 24.6000 -82.5000 TS 40 1005 0 7 1
1966180N20278 1966 36 NA GM NOT_NAMED 1966-06-30 09:00:00 TS 24.9075 -82.4926 main 135 112 P_____________ AL121966 24.9075 -82.4926 TS 40 0 6 1
1966180N20278 1966 36 NA GM NOT_NAMED 1966-06-30 12:00:00 TS 25.2000 -82.5000 40 hurdat_atl main 112 91 O_____________ hurdat_atl AL121966 25.2000 -82.5000 TS 40 0 6 356
1966180N20278 1966 36 NA GM NOT_NAMED 1966-06-30 15:00:00 TS 25.5075 -82.5425 main 91 86 P_____________ AL121966 25.5075 -82.5425 TS 40 0 6 352
1966180N20278 1966 36 NA GM NOT_NAMED 1966-06-30 18:00:00 TS 25.8000 -82.6000 40 hurdat_atl main 86 80 O_____________ hurdat_atl AL121966 25.8000 -82.6000 TS 40 0 6 350
1966180N20278 1966 36 NA GM NOT_NAMED 1966-06-30 21:00:00 TS 26.0500 -82.6500 main 81 68 P_____________ AL121966 26.0500 -82.6500 TS 40 0 5 350
1966180N20278 1966 36 NA GM NOT_NAMED 1966-07-01 00:00:00 TS 26.3000 -82.7000 40 1004 hurdat_atl main 68 45 O_____________ hurdat_atl AL121966 26.3000 -82.7000 TS 40 1004 0 5 351
1966180N20278 1966 36 NA GM NOT_NAMED 1966-07-01 03:00:00 TS 26.5850 -82.7426 main 45 44 P_____________ AL121966 26.5850 -82.7426 TS 40 1004 0 6 352
1966180N20278 1966 36 NA GM NOT_NAMED 1966-07-01 06:00:00 TS 26.9000 -82.8000 40 hurdat_atl main 44 29 I_____________ hurdat_atl AL121966 26.9000 -82.8000 TS 40 1005 0 7 347
1966180N20278 1966 36 NA GM NOT_NAMED 1966-07-01 09:00:00 TS 27.2200 -82.9000 main 31 29 P_____________ AL121966 27.2200 -82.9000 TS 40 1005 0 7 346
1966180N20278 1966 36 NA GM NOT_NAMED 1966-07-01 12:00:00 TS 27.6000 -83.0000 40 1006 hurdat_atl main 29 9 O_____________ hurdat_atl AL121966 27.6000 -83.0000 TS 40 1006 0 9 350
1966180N20278 1966 36 NA GM NOT_NAMED 1966-07-01 15:00:00 TS 28.0742 -83.0662 main 29 29 P_____________ AL121966 28.0742 -83.0662 TS 40 0 10 355
1966180N20278 1966 36 NA GM NOT_NAMED 1966-07-01 18:00:00 TS 28.6000 -83.1000 40 hurdat_atl main 48 11 O_____________ hurdat_atl AL121966 28.6000 -83.1000 TS 40 0 10 358
1966180N20278 1966 36 NA GM NOT_NAMED 1966-07-01 21:00:00 TS 29.0940 -83.1018 main 11 0 P_____________ AL121966 29.0940 -83.1018 TS 40 0 11 0
1966180N20278 1966 36 NA GM NOT_NAMED 1966-07-01 22:00:00 TS 29.3000 -83.1000 40 hurdat_atl main 0 0 O_____________ hurdat_atl AL121966 29.3000 -83.1000 L TS 40 0 14 0
1966180N20278 1966 36 NA NA NOT_NAMED 1966-07-02 00:00:00 TS 29.8000 -83.1000 35 hurdat_atl main 0 0 O_____________ hurdat_atl AL121966 29.8000 -83.1000 TS 35 0 14 3
1966180N20278 1966 36 NA NA NOT_NAMED 1966-07-02 03:00:00 TS 30.4289 -83.0235 main 0 0 P_____________ AL121966 30.4289 -83.0235 TS 32 -1 11 9
1966180N20278 1966 36 NA NA NOT_NAMED 1966-07-02 06:00:00 TS 30.9000 -82.9000 30 hurdat_atl main 0 0 O_____________ hurdat_atl AL121966 30.9000 -82.9000 TD 30 -1 9 13
1966180N20278 1966 36 NA NA NOT_NAMED 1966-07-02 09:00:00 TS 31.2600 -82.8074 main 0 0 P_____________ AL121966 31.2600 -82.8074 TD 27 -1 6 16
1966180N20278 1966 36 NA NA NOT_NAMED 1966-07-02 12:00:00 TS 31.5000 -82.7000 25 hurdat_atl main 0 0 O_____________ hurdat_atl AL121966 31.5000 -82.7000 TD 25 -1 5 27
1966180N20278 1966 36 NA NA NOT_NAMED 1966-07-02 15:00:00 TS 31.6676 -82.5601 main 0 0 P_____________ AL121966 31.6676 -82.5601 TD 22 -1 4 40
1966180N20278 1966 36 NA NA NOT_NAMED 1966-07-02 18:00:00 TS 31.8000 -82.4000 20 hurdat_atl main 0 O_____________ hurdat_atl AL121966 31.8000 -82.4000 TD 20 -1 4 46

IBTrACS Databaseについて

本データベースは、米国NOAAが公開する1842年以降の世界の熱帯低気圧のベストトラックデータアーカイブInternational Best Track Archive for Climate Stewardship (IBTrACS)を、ウェブで閲覧しやすい形式に変換したものです。

最終更新日:2022-11-16